Time,TemperatureF,DewpointF,PressureIn,WindDirection,WindDirectionDegrees,WindSpeedMPH,WindSpeedGustMPH,Humidity,HourlyPrecipIn,Conditions,Clouds,dailyrainin,SolarRadiationWatts/m^2,SoftwareType,DateUTC
2013-03-09 00:02:00,39.0,27.0,-100.00,East,87,3.0,6.0,63,0.00,,,0.00,0.000000,,2013-03-09 06:02:00,
2013-03-09 00:32:00,38.0,28.0,-100.00,East,84,2.0,5.0,66,0.00,,,0.00,0.000000,,2013-03-09 06:32:00,
2013-03-09 00:42:00,38.0,28.0,-100.00,East,84,2.0,5.0,66,0.00,,,0.00,0.000000,,2013-03-09 06:42:00,
2013-03-09 00:52:00,38.0,28.0,-100.00,East,84,2.0,5.0,66,0.00,,,0.00,0.000000,,2013-03-09 06:52:00,
2013-03-09 01:01:00,38.0,28.0,-100.00,East,84,2.0,5.0,66,0.00,,,0.00,0.000000,,2013-03-09 07:01:00,
2013-03-09 01:32:00,37.0,28.0,-100.00,East,83,3.0,4.0,69,0.00,,,0.00,0.000000,,2013-03-09 07:32:00,
2013-03-09 01:42:00,37.0,28.0,-100.00,East,83,3.0,4.0,69,0.00,,,0.00,0.000000,,2013-03-09 07:42:00,
2013-03-09 01:52:00,37.0,28.0,-100.00,East,83,3.0,4.0,69,0.00,,,0.00,0.000000,,2013-03-09 07:52:00,
2013-03-09 02:01:00,37.0,28.0,-100.00,East,83,3.0,4.0,69,0.00,,,0.00,0.000000,,2013-03-09 08:01:00,
2013-03-09 02:32:00,36.0,28.0,-100.00,East,85,3.0,4.0,71,0.00,,,0.00,0.000000,,2013-03-09 08:32:00,
2013-03-09 02:42:00,36.0,28.0,-100.00,East,85,3.0,4.0,71,0.00,,,0.00,0.000000,,2013-03-09 08:42:00,
2013-03-09 02:52:00,36.0,28.0,-100.00,East,85,3.0,4.0,71,0.00,,,0.00,0.000000,,2013-03-09 08:52:00,
2013-03-09 03:01:00,36.0,28.0,-100.00,East,85,3.0,4.0,71,0.00,,,0.00,0.000000,,2013-03-09 09:01:00,
2013-03-09 03:32:00,35.0,28.0,-100.00,SSE,149,1.0,4.0,76,0.00,,,0.00,0.000000,,2013-03-09 09:32:00,
2013-03-09 03:42:00,35.0,28.0,-100.00,SSE,149,1.0,4.0,76,0.00,,,0.00,0.000000,,2013-03-09 09:42:00,
2013-03-09 03:52:00,35.0,28.0,-100.00,SSE,149,1.0,4.0,76,0.00,,,0.00,0.000000,,2013-03-09 09:52:00,
2013-03-09 04:01:00,35.0,28.0,-100.00,SSE,149,1.0,4.0,76,0.00,,,0.00,0.000000,,2013-03-09 10:01:00,
2013-03-09 04:32:00,35.0,29.0,-100.00,SW,219,1.0,4.0,79,0.00,,,0.00,0.000000,,2013-03-09 10:32:00,
2013-03-09 04:42:00,35.0,29.0,-100.00,SW,219,1.0,4.0,79,0.00,,,0.00,0.000000,,2013-03-09 10:42:00,
2013-03-09 04:52:00,35.0,29.0,-100.00,SW,219,1.0,4.0,79,0.00,,,0.00,0.000000,,2013-03-09 10:52:00,
2013-03-09 05:01:00,35.0,29.0,-100.00,SW,219,1.0,4.0,79,0.00,,,0.00,0.000000,,2013-03-09 11:01:00,
2013-03-09 05:32:00,36.0,29.0,-100.00,ESE,110,2.0,3.0,74,0.00,,,-99.99,0.000000,,2013-03-09 11:32:00,
2013-03-09 05:42:00,36.0,29.0,-100.00,ESE,110,2.0,3.0,74,0.00,,,-99.99,0.000000,,2013-03-09 11:42:00,
2013-03-09 05:52:00,36.0,29.0,-100.00,ESE,110,2.0,3.0,74,0.00,,,-99.99,0.000000,,2013-03-09 11:52:00,
2013-03-09 06:01:00,36.0,29.0,-100.00,ESE,110,2.0,3.0,74,0.00,,,-99.99,0.000000,,2013-03-09 12:01:00,
2013-03-09 06:32:00,36.0,29.0,-100.00,SSE,161,2.0,4.0,74,0.00,,,0.00,0.000000,,2013-03-09 12:32:00,
2013-03-09 06:42:00,36.0,29.0,-100.00,SSE,161,2.0,4.0,74,0.00,,,0.00,0.000000,,2013-03-09 12:42:00,
2013-03-09 06:52:00,36.0,29.0,-100.00,SSE,161,2.0,4.0,74,0.00,,,0.00,0.000000,,2013-03-09 12:52:00,
2013-03-09 07:02:00,36.0,29.0,-100.00,SSE,161,2.0,4.0,74,0.00,,,0.00,0.000000,,2013-03-09 13:02:00,
2013-03-09 07:32:00,40.0,31.0,-100.00,South,174,3.0,6.0,69,0.00,,,0.00,39.000000,,2013-03-09 13:32:00,
2013-03-09 07:42:00,40.0,31.0,-100.00,South,174,3.0,6.0,69,0.00,,,0.00,39.000000,,2013-03-09 13:42:00,
2013-03-09 07:52:00,40.0,31.0,-100.00,South,174,3.0,6.0,69,0.00,,,0.00,39.000000,,2013-03-09 13:52:00,
2013-03-09 08:01:00,40.0,31.0,-100.00,South,174,3.0,6.0,69,0.00,,,0.00,39.000000,,2013-03-09 14:01:00,
2013-03-09 08:32:00,47.0,30.0,-100.00,SSE,163,4.0,9.0,51,0.00,,,0.00,137.000000,,2013-03-09 14:32:00,
2013-03-09 08:42:00,47.0,30.0,-100.00,SSE,163,4.0,9.0,51,0.00,,,0.00,137.000000,,2013-03-09 14:42:00,
2013-03-09 08:52:00,47.0,30.0,-100.00,SSE,163,4.0,9.0,51,0.00,,,0.00,137.000000,,2013-03-09 14:52:00,
2013-03-09 09:02:00,47.0,30.0,-100.00,SSE,163,4.0,9.0,51,0.00,,,0.00,137.000000,,2013-03-09 15:02:00,
2013-03-09 09:32:00,51.0,29.0,-100.00,SSE,165,4.0,9.0,42,0.00,,,0.00,296.000000,,2013-03-09 15:32:00,
2013-03-09 09:42:00,51.0,29.0,-100.00,SSE,165,4.0,9.0,42,0.00,,,0.00,296.000000,,2013-03-09 15:42:00,
2013-03-09 09:52:00,51.0,29.0,-100.00,SSE,165,4.0,9.0,42,0.00,,,0.00,296.000000,,2013-03-09 15:52:00,
2013-03-09 10:01:00,51.0,29.0,-100.00,SSE,165,4.0,9.0,42,0.00,,,0.00,296.000000,,2013-03-09 16:01:00,
2013-03-09 10:32:00,57.0,30.0,-100.00,South,173,6.0,11.0,35,0.00,,,0.00,534.000000,,2013-03-09 16:32:00,
2013-03-09 10:42:00,57.0,30.0,-100.00,South,173,6.0,11.0,35,0.00,,,0.00,534.000000,,2013-03-09 16:42:00,
2013-03-09 10:52:00,57.0,30.0,-100.00,South,173,6.0,11.0,35,0.00,,,0.00,534.000000,,2013-03-09 16:52:00,
2013-03-09 11:01:00,57.0,30.0,-100.00,South,173,6.0,11.0,35,0.00,,,0.00,534.000000,,2013-03-09 17:01:00,
2013-03-09 11:32:00,62.0,31.0,-100.00,SSW,195,5.0,9.0,31,0.00,,,0.00,673.000000,,2013-03-09 17:32:00,
2013-03-09 11:42:00,62.0,31.0,-100.00,SSW,195,5.0,9.0,31,0.00,,,0.00,673.000000,,2013-03-09 17:42:00,
2013-03-09 11:52:00,62.0,31.0,-100.00,SSW,195,5.0,9.0,31,0.00,,,0.00,673.000000,,2013-03-09 17:52:00,
2013-03-09 12:01:00,62.0,31.0,-100.00,SSW,195,5.0,9.0,31,0.00,,,0.00,673.000000,,2013-03-09 18:01:00,
2013-03-09 12:32:00,64.0,30.0,-100.00,SSW,213,6.0,10.0,28,0.00,,,0.00,647.000000,,2013-03-09 18:32:00,
2013-03-09 12:42:00,64.0,30.0,-100.00,SSW,213,6.0,10.0,28,0.00,,,0.00,647.000000,,2013-03-09 18:42:00,
2013-03-09 12:52:00,64.0,30.0,-100.00,SSW,213,6.0,10.0,28,0.00,,,0.00,647.000000,,2013-03-09 18:52:00,
2013-03-09 13:01:00,64.0,30.0,-100.00,SSW,213,6.0,10.0,28,0.00,,,0.00,647.000000,,2013-03-09 19:01:00,
2013-03-09 13:32:00,62.0,30.0,-100.00,SW,220,5.0,11.0,30,0.00,,,0.00,329.000000,,2013-03-09 19:32:00,
2013-03-09 13:42:00,62.0,30.0,-100.00,SW,220,5.0,11.0,30,0.00,,,0.00,329.000000,,2013-03-09 19:42:00,
2013-03-09 13:52:00,62.0,30.0,-100.00,SW,220,5.0,11.0,30,0.00,,,0.00,329.000000,,2013-03-09 19:52:00,
2013-03-09 14:01:00,62.0,30.0,-100.00,SW,220,5.0,11.0,30,0.00,,,0.00,329.000000,,2013-03-09 20:01:00,
2013-03-09 14:32:00,61.0,31.0,-100.00,SW,220,5.0,10.0,32,0.00,,,0.00,109.000000,,2013-03-09 20:32:00,
2013-03-09 14:42:00,61.0,31.0,-100.00,SW,220,5.0,10.0,32,0.00,,,0.00,109.000000,,2013-03-09 20:42:00,
2013-03-09 14:52:00,61.0,31.0,-100.00,SW,220,5.0,10.0,32,0.00,,,0.00,109.000000,,2013-03-09 20:52:00,
2013-03-09 15:02:00,61.0,31.0,-100.00,SW,220,5.0,10.0,32,0.00,,,0.00,109.000000,,2013-03-09 21:02:00,
2013-03-09 15:32:00,62.0,30.0,-100.00,South,191,4.0,9.0,30,0.00,,,0.00,151.000000,,2013-03-09 21:32:00,
2013-03-09 15:42:00,62.0,30.0,-100.00,South,191,4.0,9.0,30,0.00,,,0.00,151.000000,,2013-03-09 21:42:00,
2013-03-09 15:52:00,62.0,30.0,-100.00,South,191,4.0,9.0,30,0.00,,,0.00,151.000000,,2013-03-09 21:52:00,
2013-03-09 16:01:00,62.0,30.0,-100.00,South,191,4.0,9.0,30,0.00,,,0.00,151.000000,,2013-03-09 22:01:00,
2013-03-09 16:32:00,62.0,29.0,-100.00,SE,142,4.0,13.0,29,0.00,,,-99.99,168.000000,,2013-03-09 22:32:00,
2013-03-09 16:42:00,62.0,29.0,-100.00,SE,142,4.0,13.0,29,0.00,,,-99.99,168.000000,,2013-03-09 22:42:00,
2013-03-09 16:52:00,62.0,29.0,-100.00,SE,142,4.0,13.0,29,0.00,,,-99.99,168.000000,,2013-03-09 22:52:00,
2013-03-09 17:01:00,62.0,29.0,-100.00,SE,142,4.0,13.0,29,0.00,,,-99.99,168.000000,,2013-03-09 23:01:00,
2013-03-09 17:32:00,61.0,29.0,-100.00,SSE,159,4.0,11.0,30,0.00,,,0.00,80.000000,,2013-03-09 23:32:00,
2013-03-09 17:42:00,61.0,29.0,-100.00,SSE,159,4.0,11.0,30,0.00,,,0.00,80.000000,,2013-03-09 23:42:00,
2013-03-09 17:52:00,61.0,29.0,-100.00,SSE,159,4.0,11.0,30,0.00,,,0.00,80.000000,,2013-03-09 23:52:00,
2013-03-09 18:01:00,61.0,29.0,-100.00,SSE,159,4.0,11.0,30,0.00,,,0.00,80.000000,,2013-03-10 00:01:00,
2013-03-09 18:32:00,59.0,29.0,-100.00,SSE,162,3.0,7.0,32,0.00,,,0.00,14.000000,,2013-03-10 00:32:00,
2013-03-09 18:43:00,59.0,29.0,-100.00,SSE,162,3.0,7.0,32,0.00,,,0.00,14.000000,,2013-03-10 00:43:00,
2013-03-09 18:52:00,59.0,29.0,-100.00,SSE,162,3.0,7.0,32,0.00,,,0.00,14.000000,,2013-03-10 00:52:00,
2013-03-09 19:01:00,59.0,29.0,-100.00,SSE,162,3.0,7.0,32,0.00,,,0.00,14.000000,,2013-03-10 01:01:00,
2013-03-09 19:32:00,57.0,29.0,-100.00,SE,141,3.0,6.0,34,0.00,,,-99.99,0.000000,,2013-03-10 01:32:00,
2013-03-09 19:42:00,57.0,29.0,-100.00,SE,141,3.0,6.0,34,0.00,,,-99.99,0.000000,,2013-03-10 01:42:00,
2013-03-09 19:52:00,57.0,29.0,-100.00,SE,141,3.0,6.0,34,0.00,,,-99.99,0.000000,,2013-03-10 01:52:00,
2013-03-09 20:01:00,57.0,29.0,-100.00,SE,141,3.0,6.0,34,0.00,,,-99.99,0.000000,,2013-03-10 02:01:00,
2013-03-09 20:32:00,56.0,31.0,-100.00,SSE,149,3.0,7.0,39,0.00,,,-99.99,0.000000,,2013-03-10 02:32:00,
2013-03-09 20:42:00,56.0,31.0,-100.00,SSE,149,3.0,7.0,39,0.00,,,-99.99,0.000000,,2013-03-10 02:42:00,
2013-03-09 20:52:00,56.0,31.0,-100.00,SSE,149,3.0,7.0,39,0.00,,,-99.99,0.000000,,2013-03-10 02:52:00,
2013-03-09 21:01:00,56.0,31.0,-100.00,SSE,149,3.0,7.0,39,0.00,,,-99.99,0.000000,,2013-03-10 03:01:00,
2013-03-09 21:32:00,55.0,32.0,-100.00,SSE,153,4.0,11.0,41,0.00,,,0.00,0.000000,,2013-03-10 03:32:00,
2013-03-09 21:42:00,55.0,32.0,-100.00,SSE,153,4.0,11.0,41,0.00,,,0.00,0.000000,,2013-03-10 03:42:00,
2013-03-09 21:52:00,55.0,32.0,-100.00,SSE,153,4.0,11.0,41,0.00,,,0.00,0.000000,,2013-03-10 03:52:00,
2013-03-09 22:01:00,55.0,32.0,-100.00,SSE,153,4.0,11.0,41,0.00,,,0.00,0.000000,,2013-03-10 04:01:00,
2013-03-09 22:32:00,54.0,31.0,-100.00,SSE,156,5.0,12.0,42,0.00,,,0.00,0.000000,,2013-03-10 04:32:00,
2013-03-09 22:42:00,54.0,31.0,-100.00,SSE,156,5.0,12.0,42,0.00,,,0.00,0.000000,,2013-03-10 04:42:00,
2013-03-09 22:52:00,54.0,31.0,-100.00,SSE,156,5.0,12.0,42,0.00,,,0.00,0.000000,,2013-03-10 04:52:00,
2013-03-09 23:01:00,54.0,31.0,-100.00,SSE,156,5.0,12.0,42,0.00,,,0.00,0.000000,,2013-03-10 05:01:00,
2013-03-09 23:32:00,53.0,32.0,-100.00,SSE,162,5.0,10.0,44,0.00,,,0.00,0.000000,,2013-03-10 05:32:00,
2013-03-09 23:42:00,53.0,32.0,-100.00,SSE,162,5.0,10.0,44,0.00,,,0.00,0.000000,,2013-03-10 05:42:00,
2013-03-09 23:52:00,53.0,32.0,-100.00,SSE,162,5.0,10.0,44,0.00,,,0.00,0.000000,,2013-03-10 05:52:00,